sensor_id;sensor_type;location;lat;lon;timestamp;pressure;altitude;pressure_sealevel;temperature;humidity
56582;BME280;42463;52.214;21.238;2022-12-11T00:01:10;99483.27;;;1.43;71.48
56582;BME280;42463;52.214;21.238;2022-12-11T00:03:35;99482.79;;;1.41;71.80
56582;BME280;42463;52.214;21.238;2022-12-11T00:06:00;99484.11;;;1.44;72.05
56582;BME280;42463;52.214;21.238;2022-12-11T00:08:27;99478.23;;;1.46;71.95
56582;BME280;42463;52.214;21.238;2022-12-11T00:10:52;99478.78;;;1.48;71.90
56582;BME280;42463;52.214;21.238;2022-12-11T00:13:17;99475.98;;;1.43;71.67
56582;BME280;42463;52.214;21.238;2022-12-11T00:15:41;99478.19;;;1.40;71.83
56582;BME280;42463;52.214;21.238;2022-12-11T00:18:06;99483.52;;;1.36;71.91
56582;BME280;42463;52.214;21.238;2022-12-11T00:20:31;99486.69;;;1.32;71.73
56582;BME280;42463;52.214;21.238;2022-12-11T00:22:56;99485.06;;;1.27;72.03
56582;BME280;42463;52.214;21.238;2022-12-11T00:25:21;99487.80;;;1.25;72.20
56582;BME280;42463;52.214;21.238;2022-12-11T00:27:47;99486.84;;;1.16;72.26
56582;BME280;42463;52.214;21.238;2022-12-11T00:30:12;99482.27;;;1.10;72.24
56582;BME280;42463;52.214;21.238;2022-12-11T00:32:37;99481.60;;;1.06;72.28
56582;BME280;42463;52.214;21.238;2022-12-11T00:35:01;99481.61;;;1.01;72.59
56582;BME280;42463;52.214;21.238;2022-12-11T00:37:26;99479.97;;;0.92;72.90
56582;BME280;42463;52.214;21.238;2022-12-11T00:39:52;99479.80;;;0.94;72.87
56582;BME280;42463;52.214;21.238;2022-12-11T00:42:17;99479.12;;;0.96;73.07
56582;BME280;42463;52.214;21.238;2022-12-11T00:44:42;99477.58;;;1.01;73.05
56582;BME280;42463;52.214;21.238;2022-12-11T00:47:07;99478.89;;;1.01;72.83
56582;BME280;42463;52.214;21.238;2022-12-11T00:49:34;99479.06;;;1.00;72.57
56582;BME280;42463;52.214;21.238;2022-12-11T00:51:59;99473.11;;;0.99;72.52
56582;BME280;42463;52.214;21.238;2022-12-11T00:54:24;99468.45;;;0.95;72.55
56582;BME280;42463;52.214;21.238;2022-12-11T00:56:49;99468.56;;;0.90;72.42
56582;BME280;42463;52.214;21.238;2022-12-11T00:59:14;99463.89;;;0.88;72.79
56582;BME280;42463;52.214;21.238;2022-12-11T01:01:40;99469.04;;;0.92;72.68
56582;BME280;42463;52.214;21.238;2022-12-11T01:04:05;99471.95;;;0.94;72.54
56582;BME280;42463;52.214;21.238;2022-12-11T01:06:30;99473.77;;;0.91;72.37
56582;BME280;42463;52.214;21.238;2022-12-11T01:08:55;99474.96;;;0.92;72.56
56582;BME280;42463;52.214;21.238;2022-12-11T01:11:34;99474.81;;;0.95;72.66
56582;BME280;42463;52.214;21.238;2022-12-11T01:13:59;99472.45;;;1.00;72.87
56582;BME280;42463;52.214;21.238;2022-12-11T01:16:25;99474.38;;;1.01;72.68
56582;BME280;42463;52.214;21.238;2022-12-11T01:18:51;99473.16;;;1.04;72.79
56582;BME280;42463;52.214;21.238;2022-12-11T01:21:16;99477.12;;;1.06;72.89
56582;BME280;42463;52.214;21.238;2022-12-11T01:23:42;99480.88;;;1.10;72.82
56582;BME280;42463;52.214;21.238;2022-12-11T01:26:09;99478.53;;;1.11;72.70
56582;BME280;42463;52.214;21.238;2022-12-11T01:28:35;99472.48;;;1.11;72.71
56582;BME280;42463;52.214;21.238;2022-12-11T01:31:02;99463.30;;;1.07;72.34
56582;BME280;42463;52.214;21.238;2022-12-11T01:33:31;99453.54;;;0.96;72.32
56582;BME280;42463;52.214;21.238;2022-12-11T01:35:57;99449.05;;;0.90;72.65
56582;BME280;42463;52.214;21.238;2022-12-11T01:38:23;99445.45;;;0.89;72.87
56582;BME280;42463;52.214;21.238;2022-12-11T01:40:48;99438.86;;;0.85;72.51
56582;BME280;42463;52.214;21.238;2022-12-11T01:43:13;99435.04;;;0.78;72.54
56582;BME280;42463;52.214;21.238;2022-12-11T01:45:42;99434.30;;;0.71;72.79
56582;BME280;42463;52.214;21.238;2022-12-11T01:48:12;99430.81;;;0.66;73.06
56582;BME280;42463;52.214;21.238;2022-12-11T01:50:41;99430.52;;;0.67;73.29
56582;BME280;42463;52.214;21.238;2022-12-11T01:53:09;99428.79;;;0.72;73.68
56582;BME280;42463;52.214;21.238;2022-12-11T01:55:38;99425.83;;;0.73;73.40
56582;BME280;42463;52.214;21.238;2022-12-11T01:58:03;99422.30;;;0.76;73.64
56582;BME280;42463;52.214;21.238;2022-12-11T02:04:12;99414.47;;;0.71;73.31
56582;BME280;42463;52.214;21.238;2022-12-11T02:06:39;99411.06;;;0.72;73.37
56582;BME280;42463;52.214;21.238;2022-12-11T02:09:06;99411.17;;;0.74;73.30
56582;BME280;42463;52.214;21.238;2022-12-11T02:11:37;99411.06;;;0.71;73.23
56582;BME280;42463;52.214;21.238;2022-12-11T02:14:07;99404.70;;;0.72;73.21
56582;BME280;42463;52.214;21.238;2022-12-11T02:16:39;99399.05;;;0.75;73.45
56582;BME280;42463;52.214;21.238;2022-12-11T02:19:13;99392.50;;;0.77;73.45
56582;BME280;42463;52.214;21.238;2022-12-11T02:21:45;99392.31;;;0.81;73.23
56582;BME280;42463;52.214;21.238;2022-12-11T02:24:27;99390.02;;;0.80;72.96
56582;BME280;42463;52.214;21.238;2022-12-11T02:27:13;99393.06;;;0.72;72.59
56582;BME280;42463;52.214;21.238;2022-12-11T02:29:47;99388.80;;;0.67;72.92
56582;BME280;42463;52.214;21.238;2022-12-11T02:32:18;99392.52;;;0.63;72.85
56582;BME280;42463;52.214;21.238;2022-12-11T02:34:47;99384.27;;;0.56;72.76
56582;BME280;42463;52.214;21.238;2022-12-11T02:37:20;99390.73;;;0.51;72.72
56582;BME280;42463;52.214;21.238;2022-12-11T02:39:48;99388.46;;;0.48;73.03
56582;BME280;42463;52.214;21.238;2022-12-11T02:42:14;99386.25;;;0.47;73.17
56582;BME280;42463;52.214;21.238;2022-12-11T02:44:40;99385.19;;;0.45;72.98
56582;BME280;42463;52.214;21.238;2022-12-11T02:47:10;99379.05;;;0.41;72.96
56582;BME280;42463;52.214;21.238;2022-12-11T02:49:36;99383.95;;;0.39;73.16
56582;BME280;42463;52.214;21.238;2022-12-11T02:52:03;99383.36;;;0.43;73.12
56582;BME280;42463;52.214;21.238;2022-12-11T02:54:32;99383.50;;;0.51;73.32
56582;BME280;42463;52.214;21.238;2022-12-11T02:57:03;99381.42;;;0.56;73.18
56582;BME280;42463;52.214;21.238;2022-12-11T02:59:35;99374.67;;;0.53;72.93
56582;BME280;42463;52.214;21.238;2022-12-11T03:02:00;99381.36;;;0.55;72.96
56582;BME280;42463;52.214;21.238;2022-12-11T03:04:25;99382.34;;;0.55;73.04
56582;BME280;42463;52.214;21.238;2022-12-11T03:06:54;99381.95;;;0.52;72.47
56582;BME280;42463;52.214;21.238;2022-12-11T03:09:22;99379.77;;;0.46;72.24
56582;BME280;42463;52.214;21.238;2022-12-11T03:11:49;99377.88;;;0.40;72.38
56582;BME280;42463;52.214;21.238;2022-12-11T03:14:14;99379.22;;;0.34;72.15
56582;BME280;42463;52.214;21.238;2022-12-11T03:16:41;99385.50;;;0.35;72.43
56582;BME280;42463;52.214;21.238;2022-12-11T03:19:15;99382.05;;;0.34;72.06
56582;BME280;42463;52.214;21.238;2022-12-11T03:21:48;99380.80;;;0.30;72.01
56582;BME280;42463;52.214;21.238;2022-12-11T03:24:21;99388.09;;;0.33;72.23
56582;BME280;42463;52.214;21.238;2022-12-11T03:26:55;99389.45;;;0.38;72.25
56582;BME280;42463;52.214;21.238;2022-12-11T03:29:24;99392.83;;;0.37;71.84
56582;BME280;42463;52.214;21.238;2022-12-11T03:31:55;99391.73;;;0.36;71.86
56582;BME280;42463;52.214;21.238;2022-12-11T03:34:24;99392.16;;;0.39;72.08
56582;BME280;42463;52.214;21.238;2022-12-11T03:36:52;99392.32;;;0.39;71.82
56582;BME280;42463;52.214;21.238;2022-12-11T03:39:23;99388.91;;;0.41;72.32
56582;BME280;42463;52.214;21.238;2022-12-11T03:41:50;99391.23;;;0.42;71.77
56582;BME280;42463;52.214;21.238;2022-12-11T03:44:17;99394.73;;;0.40;71.63
56582;BME280;42463;52.214;21.238;2022-12-11T03:46:44;99394.63;;;0.38;71.68
56582;BME280;42463;52.214;21.238;2022-12-11T03:49:14;99390.72;;;0.41;71.76
56582;BME280;42463;52.214;21.238;2022-12-11T03:51:40;99394.91;;;0.37;71.46
56582;BME280;42463;52.214;21.238;2022-12-11T03:54:07;99394.60;;;0.36;71.57
56582;BME280;42463;52.214;21.238;2022-12-11T03:56:34;99389.94;;;0.40;71.89
56582;BME280;42463;52.214;21.238;2022-12-11T03:59:00;99385.67;;;0.40;71.22
56582;BME280;42463;52.214;21.238;2022-12-11T04:01:25;99381.54;;;0.38;71.20
56582;BME280;42463;52.214;21.238;2022-12-11T04:03:50;99378.44;;;0.33;71.53
56582;BME280;42463;52.214;21.238;2022-12-11T04:06:15;99374.20;;;0.35;71.67
56582;BME280;42463;52.214;21.238;2022-12-11T04:08:40;99370.64;;;0.34;71.56
56582;BME280;42463;52.214;21.238;2022-12-11T04:11:04;99363.76;;;0.33;71.38
56582;BME280;42463;52.214;21.238;2022-12-11T04:13:46;99358.81;;;0.28;71.46
56582;BME280;42463;52.214;21.238;2022-12-11T04:16:31;99359.98;;;0.31;71.65
56582;BME280;42463;52.214;21.238;2022-12-11T04:18:57;99358.64;;;0.31;71.39
56582;BME280;42463;52.214;21.238;2022-12-11T04:21:39;99355.67;;;0.32;71.47
56582;BME280;42463;52.214;21.238;2022-12-11T04:24:21;99347.59;;;0.32;71.62
56582;BME280;42463;52.214;21.238;2022-12-11T04:26:47;99349.05;;;0.35;71.63
56582;BME280;42463;52.214;21.238;2022-12-11T04:29:12;99350.02;;;0.38;71.73
56582;BME280;42463;52.214;21.238;2022-12-11T04:31:37;99349.54;;;0.44;71.47
56582;BME280;42463;52.214;21.238;2022-12-11T04:34:02;99351.96;;;0.40;71.10
56582;BME280;42463;52.214;21.238;2022-12-11T04:36:26;99350.91;;;0.33;70.85
56582;BME280;42463;52.214;21.238;2022-12-11T04:38:51;99349.36;;;0.23;70.85
56582;BME280;42463;52.214;21.238;2022-12-11T04:41:17;99349.85;;;0.16;71.21
56582;BME280;42463;52.214;21.238;2022-12-11T04:43:42;99351.91;;;0.14;71.33
56582;BME280;42463;52.214;21.238;2022-12-11T04:46:09;99357.38;;;0.13;71.27
56582;BME280;42463;52.214;21.238;2022-12-11T04:48:36;99356.44;;;0.11;71.40
56582;BME280;42463;52.214;21.238;2022-12-11T04:51:01;99349.24;;;0.07;71.47
56582;BME280;42463;52.214;21.238;2022-12-11T04:53:26;99350.20;;;0.04;71.48
56582;BME280;42463;52.214;21.238;2022-12-11T04:55:51;99347.29;;;0.00;71.61
56582;BME280;42463;52.214;21.238;2022-12-11T04:58:16;99346.80;;;0.01;71.60
56582;BME280;42463;52.214;21.238;2022-12-11T05:00:42;99342.41;;;0.02;71.88
56582;BME280;42463;52.214;21.238;2022-12-11T05:03:07;99341.31;;;0.01;71.70
56582;BME280;42463;52.214;21.238;2022-12-11T05:05:33;99333.33;;;-0.02;71.63
56582;BME280;42463;52.214;21.238;2022-12-11T05:07:58;99323.05;;;-0.03;71.59
56582;BME280;42463;52.214;21.238;2022-12-11T05:10:23;99316.52;;;-0.03;71.74
56582;BME280;42463;52.214;21.238;2022-12-11T05:12:48;99306.20;;;-0.02;71.77
56582;BME280;42463;52.214;21.238;2022-12-11T05:15:13;99304.23;;;0.03;71.98
56582;BME280;42463;52.214;21.238;2022-12-11T05:17:37;99305.85;;;0.06;71.70
56582;BME280;42463;52.214;21.238;2022-12-11T05:20:03;99302.24;;;0.06;71.71
56582;BME280;42463;52.214;21.238;2022-12-11T05:22:30;99296.04;;;0.07;71.45
56582;BME280;42463;52.214;21.238;2022-12-11T05:24:55;99293.15;;;0.01;71.07
56582;BME280;42463;52.214;21.238;2022-12-11T05:27:20;99287.25;;;-0.05;71.24
56582;BME280;42463;52.214;21.238;2022-12-11T05:29:44;99287.68;;;-0.09;71.63
56582;BME280;42463;52.214;21.238;2022-12-11T05:32:09;99281.80;;;-0.06;71.74
56582;BME280;42463;52.214;21.238;2022-12-11T05:34:42;99278.05;;;-0.02;71.55
56582;BME280;42463;52.214;21.238;2022-12-11T05:37:09;99275.59;;;-0.03;71.50
56582;BME280;42463;52.214;21.238;2022-12-11T05:39:34;99272.73;;;-0.03;71.82
56582;BME280;42463;52.214;21.238;2022-12-11T05:41:59;99269.70;;;-0.06;71.28
56582;BME280;42463;52.214;21.238;2022-12-11T05:44:24;99269.33;;;-0.11;71.15
56582;BME280;42463;52.214;21.238;2022-12-11T05:46:49;99266.25;;;-0.18;71.04
56582;BME280;42463;52.214;21.238;2022-12-11T05:49:16;99261.82;;;-0.18;71.11
56582;BME280;42463;52.214;21.238;2022-12-11T05:51:41;99261.45;;;-0.20;71.03
56582;BME280;42463;52.214;21.238;2022-12-11T05:54:06;99263.16;;;-0.25;70.59
56582;BME280;42463;52.214;21.238;2022-12-11T05:56:33;99258.95;;;-0.28;70.90
56582;BME280;42463;52.214;21.238;2022-12-11T05:58:59;99259.73;;;-0.28;71.12
56582;BME280;42463;52.214;21.238;2022-12-11T06:01:26;99257.32;;;-0.29;71.01
56582;BME280;42463;52.214;21.238;2022-12-11T06:03:52;99257.05;;;-0.32;70.95
56582;BME280;42463;52.214;21.238;2022-12-11T06:06:17;99256.89;;;-0.34;71.20
56582;BME280;42463;52.214;21.238;2022-12-11T06:08:41;99260.39;;;-0.27;71.57
56582;BME280;42463;52.214;21.238;2022-12-11T06:11:07;99262.74;;;-0.22;71.18
56582;BME280;42463;52.214;21.238;2022-12-11T06:13:32;99263.69;;;-0.24;70.92
56582;BME280;42463;52.214;21.238;2022-12-11T06:16:00;99265.92;;;-0.27;70.80
56582;BME280;42463;52.214;21.238;2022-12-11T06:18:25;99264.80;;;-0.27;71.08
56582;BME280;42463;52.214;21.238;2022-12-11T06:20:51;99270.91;;;-0.26;71.06
56582;BME280;42463;52.214;21.238;2022-12-11T06:23:15;99273.73;;;-0.23;70.94
56582;BME280;42463;52.214;21.238;2022-12-11T06:25:40;99276.80;;;-0.22;70.81
56582;BME280;42463;52.214;21.238;2022-12-11T06:28:05;99272.38;;;-0.16;70.81
56582;BME280;42463;52.214;21.238;2022-12-11T06:30:30;99271.77;;;-0.09;70.99
56582;BME280;42463;52.214;21.238;2022-12-11T06:32:56;99273.06;;;-0.05;70.64
56582;BME280;42463;52.214;21.238;2022-12-11T06:35:21;99273.73;;;-0.04;70.57
56582;BME280;42463;52.214;21.238;2022-12-11T06:37:46;99268.35;;;-0.05;70.05
56582;BME280;42463;52.214;21.238;2022-12-11T06:40:12;99272.05;;;-0.13;69.73
56582;BME280;42463;52.214;21.238;2022-12-11T06:42:37;99273.80;;;-0.20;69.82
56582;BME280;42463;52.214;21.238;2022-12-11T06:45:02;99268.96;;;-0.22;69.81
56582;BME280;42463;52.214;21.238;2022-12-11T06:47:28;99272.59;;;-0.25;69.74
56582;BME280;42463;52.214;21.238;2022-12-11T06:49:55;99272.71;;;-0.24;70.00
56582;BME280;42463;52.214;21.238;2022-12-11T06:52:20;99269.20;;;-0.27;69.62
56582;BME280;42463;52.214;21.238;2022-12-11T06:54:45;99270.86;;;-0.32;69.72
56582;BME280;42463;52.214;21.238;2022-12-11T06:57:13;99269.92;;;-0.34;69.63
56582;BME280;42463;52.214;21.238;2022-12-11T06:59:39;99269.77;;;-0.37;69.45
56582;BME280;42463;52.214;21.238;2022-12-11T07:02:05;99269.04;;;-0.37;69.73
56582;BME280;42463;52.214;21.238;2022-12-11T07:04:30;99265.98;;;-0.31;69.85
56582;BME280;42463;52.214;21.238;2022-12-11T07:06:55;99263.35;;;-0.32;69.60
56582;BME280;42463;52.214;21.238;2022-12-11T07:09:20;99261.35;;;-0.23;70.16
56582;BME280;42463;52.214;21.238;2022-12-11T07:11:45;99253.02;;;-0.14;70.08
56582;BME280;42463;52.214;21.238;2022-12-11T07:14:13;99254.04;;;-0.06;69.76
56582;BME280;42463;52.214;21.238;2022-12-11T07:16:42;99248.67;;;-0.07;69.36
56582;BME280;42463;52.214;21.238;2022-12-11T07:19:08;99242.77;;;-0.09;69.32
56582;BME280;42463;52.214;21.238;2022-12-11T07:21:33;99246.77;;;-0.11;69.19
56582;BME280;42463;52.214;21.238;2022-12-11T07:23:59;99249.88;;;-0.16;69.03
56582;BME280;42463;52.214;21.238;2022-12-11T07:26:26;99249.48;;;-0.19;69.24
56582;BME280;42463;52.214;21.238;2022-12-11T07:28:55;99243.66;;;-0.14;69.40
56582;BME280;42463;52.214;21.238;2022-12-11T07:31:24;99242.14;;;-0.18;69.08
56582;BME280;42463;52.214;21.238;2022-12-11T07:33:53;99240.16;;;-0.17;69.09
56582;BME280;42463;52.214;21.238;2022-12-11T07:36:18;99238.38;;;-0.14;68.94
56582;BME280;42463;52.214;21.238;2022-12-11T07:38:44;99235.89;;;-0.15;68.93
56582;BME280;42463;52.214;21.238;2022-12-11T07:41:12;99231.65;;;-0.19;68.70
56582;BME280;42463;52.214;21.238;2022-12-11T07:43:38;99226.34;;;-0.23;68.75
56582;BME280;42463;52.214;21.238;2022-12-11T07:46:06;99222.30;;;-0.26;68.76
56582;BME280;42463;52.214;21.238;2022-12-11T07:48:35;99221.42;;;-0.25;69.01
56582;BME280;42463;52.214;21.238;2022-12-11T07:51:09;99224.91;;;-0.24;68.81
56582;BME280;42463;52.214;21.238;2022-12-11T07:53:42;99227.38;;;-0.27;68.53
56582;BME280;42463;52.214;21.238;2022-12-11T07:56:07;99225.21;;;-0.28;68.43
56582;BME280;42463;52.214;21.238;2022-12-11T07:58:32;99220.95;;;-0.28;68.66
56582;BME280;42463;52.214;21.238;2022-12-11T08:00:57;99216.17;;;-0.31;68.72
56582;BME280;42463;52.214;21.238;2022-12-11T08:03:22;99215.43;;;-0.30;68.76
56582;BME280;42463;52.214;21.238;2022-12-11T08:05:49;99212.98;;;-0.32;68.50
56582;BME280;42463;52.214;21.238;2022-12-11T08:08:15;99208.79;;;-0.38;68.24
56582;BME280;42463;52.214;21.238;2022-12-11T08:10:39;99210.47;;;-0.45;68.49
56582;BME280;42463;52.214;21.238;2022-12-11T08:13:04;99210.38;;;-0.51;68.70
56582;BME280;42463;52.214;21.238;2022-12-11T08:15:28;99209.23;;;-0.53;68.91
56582;BME280;42463;52.214;21.238;2022-12-11T08:17:53;99205.84;;;-0.53;69.10
56582;BME280;42463;52.214;21.238;2022-12-11T08:20:19;99202.42;;;-0.53;68.55
56582;BME280;42463;52.214;21.238;2022-12-11T08:22:43;99204.13;;;-0.55;68.86
56582;BME280;42463;52.214;21.238;2022-12-11T08:25:09;99196.64;;;-0.50;69.15
56582;BME280;42463;52.214;21.238;2022-12-11T08:27:34;99193.38;;;-0.45;68.71
56582;BME280;42463;52.214;21.238;2022-12-11T08:29:59;99195.22;;;-0.45;69.18
56582;BME280;42463;52.214;21.238;2022-12-11T08:32:25;99192.27;;;-0.38;69.77
56582;BME280;42463;52.214;21.238;2022-12-11T08:34:51;99192.65;;;-0.33;69.38
56582;BME280;42463;52.214;21.238;2022-12-11T08:37:21;99190.34;;;-0.37;68.63
56582;BME280;42463;52.214;21.238;2022-12-11T08:39:49;99189.58;;;-0.40;68.60
56582;BME280;42463;52.214;21.238;2022-12-11T08:42:15;99187.20;;;-0.40;68.61
56582;BME280;42463;52.214;21.238;2022-12-11T08:44:40;99179.86;;;-0.39;68.77
56582;BME280;42463;52.214;21.238;2022-12-11T08:47:06;99174.36;;;-0.38;68.78
56582;BME280;42463;52.214;21.238;2022-12-11T08:49:32;99179.45;;;-0.40;68.33
56582;BME280;42463;52.214;21.238;2022-12-11T08:51:57;99183.11;;;-0.41;68.55
56582;BME280;42463;52.214;21.238;2022-12-11T08:54:23;99182.35;;;-0.38;68.60
56582;BME280;42463;52.214;21.238;2022-12-11T08:56:48;99175.73;;;-0.35;68.91
56582;BME280;42463;52.214;21.238;2022-12-11T08:59:13;99173.04;;;-0.36;68.59
56582;BME280;42463;52.214;21.238;2022-12-11T09:01:38;99178.07;;;-0.42;68.15
56582;BME280;42463;52.214;21.238;2022-12-11T09:04:06;99176.03;;;-0.44;68.34
56582;BME280;42463;52.214;21.238;2022-12-11T09:06:36;99171.88;;;-0.40;68.54
56582;BME280;42463;52.214;21.238;2022-12-11T09:09:04;99173.98;;;-0.37;68.49
56582;BME280;42463;52.214;21.238;2022-12-11T09:11:30;99169.00;;;-0.34;68.41
56582;BME280;42463;52.214;21.238;2022-12-11T09:13:56;99169.61;;;-0.32;68.39
56582;BME280;42463;52.214;21.238;2022-12-11T09:16:23;99169.65;;;-0.32;68.04
56582;BME280;42463;52.214;21.238;2022-12-11T09:18:50;99166.77;;;-0.32;68.32
56582;BME280;42463;52.214;21.238;2022-12-11T09:21:17;99159.73;;;-0.34;68.19
56582;BME280;42463;52.214;21.238;2022-12-11T09:23:44;99155.96;;;-0.32;68.28
56582;BME280;42463;52.214;21.238;2022-12-11T09:26:13;99150.73;;;-0.27;68.44
56582;BME280;42463;52.214;21.238;2022-12-11T09:28:39;99141.40;;;-0.26;68.30
56582;BME280;42463;52.214;21.238;2022-12-11T09:31:08;99137.27;;;-0.27;68.03
56582;BME280;42463;52.214;21.238;2022-12-11T09:33:34;99131.45;;;-0.34;67.90
56582;BME280;42463;52.214;21.238;2022-12-11T09:36:00;99124.30;;;-0.42;68.07
56582;BME280;42463;52.214;21.238;2022-12-11T09:38:25;99116.06;;;-0.50;68.26
56582;BME280;42463;52.214;21.238;2022-12-11T09:40:50;99113.27;;;-0.60;68.38
56582;BME280;42463;52.214;21.238;2022-12-11T09:43:25;99111.20;;;-0.58;68.97
56582;BME280;42463;52.214;21.238;2022-12-11T09:46:06;99103.15;;;-0.48;69.13
56582;BME280;42463;52.214;21.238;2022-12-11T09:48:34;99102.10;;;-0.44;68.81
56582;BME280;42463;52.214;21.238;2022-12-11T09:51:04;99097.03;;;-0.41;68.61
56582;BME280;42463;52.214;21.238;2022-12-11T09:53:35;99091.96;;;-0.43;68.44
56582;BME280;42463;52.214;21.238;2022-12-11T09:56:06;99090.88;;;-0.40;68.77
56582;BME280;42463;52.214;21.238;2022-12-11T09:58:53;99082.61;;;-0.35;68.68
56582;BME280;42463;52.214;21.238;2022-12-11T10:01:24;99078.58;;;-0.29;68.84
56582;BME280;42463;52.214;21.238;2022-12-11T10:04:02;99074.62;;;-0.26;68.64
56582;BME280;42463;52.214;21.238;2022-12-11T10:06:40;99071.64;;;-0.27;67.98
56582;BME280;42463;52.214;21.238;2022-12-11T10:09:16;99078.89;;;-0.31;67.86
56582;BME280;42463;52.214;21.238;2022-12-11T10:11:52;99074.42;;;-0.37;67.77
56582;BME280;42463;52.214;21.238;2022-12-11T10:14:27;99065.59;;;-0.34;67.99
56582;BME280;42463;52.214;21.238;2022-12-11T10:16:58;99063.93;;;-0.37;67.57
56582;BME280;42463;52.214;21.238;2022-12-11T10:19:33;99061.11;;;-0.43;67.65
56582;BME280;42463;52.214;21.238;2022-12-11T10:22:00;99061.02;;;-0.43;67.94
56582;BME280;42463;52.214;21.238;2022-12-11T10:24:36;99055.58;;;-0.38;68.38
56582;BME280;42463;52.214;21.238;2022-12-11T10:27:14;99049.55;;;-0.40;67.99
56582;BME280;42463;52.214;21.238;2022-12-11T10:29:41;99047.56;;;-0.46;68.07
56582;BME280;42463;52.214;21.238;2022-12-11T10:32:12;99050.52;;;-0.47;68.38
56582;BME280;42463;52.214;21.238;2022-12-11T10:34:43;99048.13;;;-0.51;68.73
56582;BME280;42463;52.214;21.238;2022-12-11T10:37:09;99043.65;;;-0.49;68.62
56582;BME280;42463;52.214;21.238;2022-12-11T10:39:35;99036.46;;;-0.47;68.72
56582;BME280;42463;52.214;21.238;2022-12-11T10:42:00;99037.36;;;-0.51;68.27
56582;BME280;42463;52.214;21.238;2022-12-11T10:44:32;99035.38;;;-0.56;68.49
56582;BME280;42463;52.214;21.238;2022-12-11T10:47:05;99029.15;;;-0.61;68.30
56582;BME280;42463;52.214;21.238;2022-12-11T10:49:32;99030.05;;;-0.66;68.69
56582;BME280;42463;52.214;21.238;2022-12-11T10:51:57;99020.63;;;-0.61;68.92
56582;BME280;42463;52.214;21.238;2022-12-11T10:54:31;99012.80;;;-0.54;69.09
56582;BME280;42463;52.214;21.238;2022-12-11T10:56:57;99011.42;;;-0.47;68.98
56582;BME280;42463;52.214;21.238;2022-12-11T10:59:26;99011.58;;;-0.41;68.82
56582;BME280;42463;52.214;21.238;2022-12-11T11:01:54;99005.72;;;-0.41;68.71
56582;BME280;42463;52.214;21.238;2022-12-11T11:04:22;99005.34;;;-0.36;69.00
56582;BME280;42463;52.214;21.238;2022-12-11T11:07:01;98997.13;;;-0.38;68.37
56582;BME280;42463;52.214;21.238;2022-12-11T11:09:33;98991.89;;;-0.44;68.36
56582;BME280;42463;52.214;21.238;2022-12-11T11:11:57;98984.88;;;-0.48;68.25
56582;BME280;42463;52.214;21.238;2022-12-11T11:14:22;98979.79;;;-0.47;68.45
56582;BME280;42463;52.214;21.238;2022-12-11T11:16:50;98977.09;;;-0.52;68.02
56582;BME280;42463;52.214;21.238;2022-12-11T11:19:22;98972.52;;;-0.59;68.00
56582;BME280;42463;52.214;21.238;2022-12-11T11:21:51;98970.38;;;-0.68;68.23
56582;BME280;42463;52.214;21.238;2022-12-11T11:24:27;98967.37;;;-0.71;68.35
56582;BME280;42463;52.214;21.238;2022-12-11T11:26:53;98965.73;;;-0.71;68.77
56582;BME280;42463;52.214;21.238;2022-12-11T11:29:26;98968.11;;;-0.66;68.80
56582;BME280;42463;52.214;21.238;2022-12-11T11:31:53;98965.89;;;-0.62;68.79
56582;BME280;42463;52.214;21.238;2022-12-11T11:34:20;98966.80;;;-0.55;68.87
56582;BME280;42463;52.214;21.238;2022-12-11T11:36:55;98969.05;;;-0.51;68.20
56582;BME280;42463;52.214;21.238;2022-12-11T11:39:27;98959.75;;;-0.52;68.28
56582;BME280;42463;52.214;21.238;2022-12-11T11:41:59;98960.41;;;-0.57;67.90
56582;BME280;42463;52.214;21.238;2022-12-11T11:44:30;98958.83;;;-0.59;68.35
56582;BME280;42463;52.214;21.238;2022-12-11T11:47:00;98958.50;;;-0.63;68.18
56582;BME280;42463;52.214;21.238;2022-12-11T11:49:40;98955.41;;;-0.68;68.37
56582;BME280;42463;52.214;21.238;2022-12-11T11:52:14;98952.05;;;-0.67;68.47
56582;BME280;42463;52.214;21.238;2022-12-11T11:54:45;98949.30;;;-0.61;68.63
56582;BME280;42463;52.214;21.238;2022-12-11T11:57:17;98948.95;;;-0.63;68.36
56582;BME280;42463;52.214;21.238;2022-12-11T11:59:48;98951.85;;;-0.68;68.28
56582;BME280;42463;52.214;21.238;2022-12-11T12:02:16;98951.48;;;-0.67;68.62
56582;BME280;42463;52.214;21.238;2022-12-11T12:04:42;98954.69;;;-0.69;68.33
56582;BME280;42463;52.214;21.238;2022-12-11T12:07:17;98953.55;;;-0.65;68.48
56582;BME280;42463;52.214;21.238;2022-12-11T12:09:51;98950.21;;;-0.62;68.48
56582;BME280;42463;52.214;21.238;2022-12-11T12:12:25;98944.81;;;-0.63;68.29
56582;BME280;42463;52.214;21.238;2022-12-11T12:15:07;98946.73;;;-0.63;68.04
56582;BME280;42463;52.214;21.238;2022-12-11T12:17:41;98944.02;;;-0.68;67.94
56582;BME280;42463;52.214;21.238;2022-12-11T12:20:15;98944.59;;;-0.71;67.99
56582;BME280;42463;52.214;21.238;2022-12-11T12:22:59;98940.31;;;-0.74;67.99
56582;BME280;42463;52.214;21.238;2022-12-11T12:25:30;98938.91;;;-0.73;68.38
56582;BME280;42463;52.214;21.238;2022-12-11T12:28:04;98941.04;;;-0.73;68.31
56582;BME280;42463;52.214;21.238;2022-12-11T12:30:42;98941.81;;;-0.72;68.43
56582;BME280;42463;52.214;21.238;2022-12-11T12:33:19;98938.42;;;-0.73;68.28
56582;BME280;42463;52.214;21.238;2022-12-11T12:35:52;98936.47;;;-0.70;68.53
56582;BME280;42463;52.214;21.238;2022-12-11T12:38:22;98933.33;;;-0.66;68.55
56582;BME280;42463;52.214;21.238;2022-12-11T12:41:01;98931.48;;;-0.63;68.36
56582;BME280;42463;52.214;21.238;2022-12-11T12:43:51;98930.47;;;-0.64;68.52
56582;BME280;42463;52.214;21.238;2022-12-11T12:46:32;98929.23;;;-0.62;68.49
56582;BME280;42463;52.214;21.238;2022-12-11T12:49:06;98926.72;;;-0.65;68.32
56582;BME280;42463;52.214;21.238;2022-12-11T12:51:34;98932.13;;;-0.70;67.83
56582;BME280;42463;52.214;21.238;2022-12-11T12:54:01;98935.00;;;-0.75;68.08
56582;BME280;42463;52.214;21.238;2022-12-11T12:56:28;98929.58;;;-0.78;68.21
56582;BME280;42463;52.214;21.238;2022-12-11T12:58:53;98927.05;;;-0.86;68.08
56582;BME280;42463;52.214;21.238;2022-12-11T13:01:20;98926.20;;;-0.87;68.13
56582;BME280;42463;52.214;21.238;2022-12-11T13:03:55;98922.50;;;-0.85;68.49